Montrose, California
Current Conditions -  °F | °C
As of 10:53 AM on Sunday 23 Nov 2014 (Local Time) from KBUR Reporting Station
Clear Clear  
Wind Chill: 74°   Ceiling: Unl
Heat Index: 74°   Visibility: 10mi
Dew Point: 13°   Wind: 14mph
Humidity: 10%   Direction: 340°NNW
Pressure: 30.13"   Gusts: NA
Location:  34.21°N, 118.22°W
Report Text: KBUR 231853Z 34012KT 10SM CLR 23/M11 A3013 RMK AO2 SLP194 T02331106
Loading
Personal Weather Stations






























Interactive Weather Map New forecast layout! Learn more

10-Day Weather Forecast

Advertisements
Track Severe Weather on mobile